createdAt,value
2018-09-01T00:00:22.965Z,3.47
2018-09-01T00:02:51.518Z,3.57
2018-09-01T00:05:20.098Z,3.73
2018-09-01T00:07:48.562Z,3.67
2018-09-01T00:10:17.071Z,3.93
2018-09-01T00:12:45.518Z,3.20
2018-09-01T00:15:13.986Z,3.53
2018-09-01T00:17:42.435Z,3.17
2018-09-01T00:20:10.981Z,3.67
2018-09-01T00:22:39.507Z,3.33
2018-09-01T00:25:07.960Z,3.80
2018-09-01T00:27:36.458Z,3.33
2018-09-01T00:30:04.956Z,3.10
2018-09-01T00:32:33.485Z,3.37
2018-09-01T00:35:01.994Z,3.80
2018-09-01T00:37:36.541Z,3.57
2018-09-01T00:40:05.112Z,3.13
2018-09-01T00:42:33.628Z,3.23
2018-09-01T00:45:03.833Z,3.70
2018-09-01T00:47:32.666Z,3.50
2018-09-01T00:50:01.249Z,3.17
2018-09-01T00:52:29.788Z,3.80
2018-09-01T00:54:58.255Z,3.63
2018-09-01T00:57:26.706Z,3.43
2018-09-01T00:59:55.224Z,3.77
2018-09-01T01:02:23.716Z,3.73
2018-09-01T01:04:52.156Z,3.60
2018-09-01T01:07:20.693Z,3.30
2018-09-01T01:09:49.249Z,3.73
2018-09-01T01:12:17.769Z,3.30
2018-09-01T01:14:46.300Z,3.27
2018-09-01T01:17:14.868Z,3.30
2018-09-01T01:19:44.044Z,3.37
2018-09-01T01:22:12.534Z,4.27
2018-09-01T01:24:40.958Z,3.60
2018-09-01T01:27:09.456Z,3.70
2018-09-01T01:29:37.891Z,3.70
2018-09-01T01:32:06.557Z,3.60
2018-09-01T01:34:35.020Z,3.80
2018-09-01T01:37:03.470Z,3.70
2018-09-01T01:39:31.936Z,4.03
2018-09-01T01:42:00.650Z,3.90
2018-09-01T01:44:29.216Z,4.10
2018-09-01T01:46:57.665Z,3.43
2018-09-01T01:49:26.246Z,4.40
2018-09-01T01:51:54.692Z,4.40
2018-09-01T01:54:23.210Z,3.60
2018-09-01T01:56:51.657Z,4.07
2018-09-01T01:59:20.135Z,3.97
2018-09-01T02:01:48.614Z,3.87
2018-09-01T02:04:17.175Z,4.43
2018-09-01T02:06:45.680Z,4.63
2018-09-01T02:09:14.239Z,4.47
2018-09-01T02:11:42.814Z,4.17
2018-09-01T02:14:11.415Z,4.63
2018-09-01T02:16:39.906Z,4.40
2018-09-01T02:19:08.430Z,4.00
2018-09-01T02:21:37.090Z,4.37
2018-09-01T02:24:05.890Z,4.40
2018-09-01T02:26:35.235Z,4.20
2018-09-01T02:29:03.746Z,4.63
2018-09-01T02:31:32.274Z,4.43
2018-09-01T02:34:01.432Z,4.87
2018-09-01T02:36:29.932Z,4.67
2018-09-01T02:38:58.357Z,3.93
2018-09-01T02:41:26.917Z,4.83
2018-09-01T02:43:55.655Z,5.03
2018-09-01T02:46:24.140Z,5.13
2018-09-01T02:48:52.638Z,5.20
2018-09-01T02:51:21.733Z,5.00
2018-09-01T02:53:50.330Z,4.73
2018-09-01T02:56:18.848Z,4.83
2018-09-01T02:58:47.455Z,4.80
2018-09-01T03:01:21.342Z,5.10
2018-09-01T03:03:49.832Z,4.63
2018-09-01T03:06:18.330Z,5.00
2018-09-01T03:08:46.856Z,6.23
2018-09-01T03:11:15.331Z,5.70
2018-09-01T03:13:43.798Z,5.60
2018-09-01T03:16:12.384Z,5.67
2018-09-01T03:18:40.838Z,6.17
2018-09-01T03:21:09.337Z,6.53
2018-09-01T03:23:37.847Z,6.23
2018-09-01T03:26:06.420Z,6.00
2018-09-01T03:28:35.057Z,6.17
2018-09-01T03:31:03.576Z,5.47
2018-09-01T03:33:32.100Z,5.93
2018-09-01T03:36:01.300Z,6.10
2018-09-01T03:38:29.852Z,5.77
2018-09-01T03:40:58.273Z,6.07
2018-09-01T03:43:26.737Z,6.03
2018-09-01T03:45:55.273Z,5.70
2018-09-01T03:48:23.838Z,6.90
2018-09-01T03:50:52.722Z,6.13
2018-09-01T03:53:21.287Z,6.60
2018-09-01T03:55:49.719Z,7.03
2018-09-01T03:58:18.290Z,6.87
2018-09-01T04:00:46.771Z,6.77
2018-09-01T04:03:15.361Z,6.63
2018-09-01T04:05:43.814Z,6.67
2018-09-01T04:08:12.299Z,6.60
2018-09-01T04:10:40.752Z,7.87
2018-09-01T04:13:09.297Z,6.53
2018-09-01T04:15:37.720Z,7.37
2018-09-01T04:18:06.237Z,6.70
2018-09-01T04:20:34.774Z,7.70
2018-09-01T04:23:03.463Z,8.07
2018-09-01T04:25:32.741Z,7.70
2018-09-01T04:28:01.241Z,8.10
2018-09-01T04:30:29.885Z,7.97
2018-09-01T04:32:58.381Z,8.60
2018-09-01T04:35:26.829Z,8.30
2018-09-01T04:37:55.329Z,8.23
2018-09-01T04:40:23.858Z,8.50
2018-09-01T04:42:52.846Z,8.23
2018-09-01T04:45:21.418Z,8.03
2018-09-01T04:47:49.842Z,7.83
2018-09-01T04:50:18.326Z,7.57
2018-09-01T04:52:46.761Z,8.27
2018-09-01T04:55:15.249Z,8.87
2018-09-01T04:57:44.355Z,8.27
2018-09-01T05:00:17.062Z,9.00
2018-09-01T05:02:45.487Z,9.13
2018-09-01T05:05:14.012Z,8.40
2018-09-01T05:07:42.444Z,9.57
2018-09-01T05:10:10.962Z,9.90
2018-09-01T05:12:39.475Z,10.43
2018-09-01T05:15:08.091Z,9.20
2018-09-01T05:17:36.554Z,10.83
2018-09-01T05:20:05.103Z,9.20
2018-09-01T05:22:33.548Z,8.57
2018-09-01T05:25:02.207Z,8.93
2018-09-01T05:27:31.108Z,8.17
2018-09-01T05:29:59.705Z,8.50
2018-09-01T05:32:28.147Z,8.87
2018-09-01T05:34:56.660Z,9.43
2018-09-01T05:37:25.210Z,9.57
2018-09-01T05:39:53.868Z,8.53
2018-09-01T05:42:22.370Z,9.90
2018-09-01T05:44:51.190Z,9.00
2018-09-01T05:47:19.624Z,8.87
2018-09-01T05:49:48.061Z,10.23
2018-09-01T05:52:16.638Z,9.13
2018-09-01T05:54:45.202Z,8.00
2018-09-01T05:57:13.681Z,8.07
2018-09-01T05:59:42.202Z,8.13
2018-09-01T06:02:10.652Z,6.90
2018-09-01T06:04:39.140Z,7.50
2018-09-01T06:07:07.705Z,6.77
2018-09-01T06:09:36.245Z,6.87
2018-09-01T06:12:04.803Z,6.90
2018-09-01T06:14:33.576Z,6.90
2018-09-01T06:17:02.028Z,6.27
2018-09-01T06:19:30.548Z,6.57
2018-09-01T06:21:59.065Z,6.60
2018-09-01T06:24:27.676Z,7.00
2018-09-01T06:26:57.377Z,6.93
2018-09-01T06:29:25.904Z,6.53
2018-09-01T06:32:00.961Z,6.87
2018-09-01T06:34:29.593Z,6.60
2018-09-01T06:36:58.101Z,6.50
2018-09-01T06:39:26.686Z,6.23
2018-09-01T06:41:55.313Z,6.53
2018-09-01T06:44:23.856Z,6.40
2018-09-01T06:46:52.472Z,6.17
2018-09-01T06:49:20.941Z,5.90
2018-09-01T06:51:49.441Z,6.00
2018-09-01T06:54:17.957Z,6.00
2018-09-01T06:56:46.412Z,5.83
2018-09-01T06:59:14.886Z,5.73
2018-09-01T07:01:43.344Z,5.77
2018-09-01T07:04:11.797Z,5.70
2018-09-01T07:06:40.361Z,5.87
2018-09-01T07:09:09.100Z,5.50
2018-09-01T07:11:37.979Z,5.93
2018-09-01T07:14:06.674Z,5.87
2018-09-01T07:16:35.407Z,5.60
2018-09-01T07:19:04.030Z,5.90
2018-09-01T07:21:32.559Z,5.33
2018-09-01T07:24:01.009Z,5.57
2018-09-01T07:26:30.251Z,5.80
2018-09-01T07:28:58.817Z,6.07
2018-09-01T07:31:27.714Z,5.73
2018-09-01T07:33:56.640Z,6.13
2018-09-01T07:36:25.142Z,5.63
2018-09-01T07:38:53.673Z,5.57
2018-09-01T07:41:22.223Z,5.63
2018-09-01T07:43:50.744Z,5.90
2018-09-01T07:46:19.288Z,5.70
2018-09-01T07:48:47.870Z,5.17
2018-09-01T07:51:16.431Z,6.53
2018-09-01T07:53:45.379Z,6.10
2018-09-01T07:56:13.993Z,5.63
2018-09-01T07:58:42.427Z,5.33
2018-09-01T08:01:10.961Z,5.30
2018-09-01T08:03:39.393Z,5.53
2018-09-01T08:06:07.981Z,6.07
2018-09-01T08:08:36.535Z,5.87
2018-09-01T08:11:05.434Z,5.90
2018-09-01T08:13:34.004Z,5.97
2018-09-01T08:16:02.501Z,6.43
2018-09-01T08:18:30.958Z,5.87
2018-09-01T08:20:59.519Z,5.60
2018-09-01T08:23:28.004Z,5.40
2018-09-01T08:25:56.591Z,5.77
2018-09-01T08:28:25.147Z,5.77
2018-09-01T08:30:53.648Z,5.37
2018-09-01T08:33:22.279Z,5.63
2018-09-01T08:35:51.017Z,5.50
2018-09-01T08:38:19.545Z,5.63
2018-09-01T08:40:48.722Z,6.00
2018-09-01T08:43:17.993Z,5.60
2018-09-01T08:45:46.957Z,5.20
2018-09-01T08:48:15.569Z,5.73
2018-09-01T08:50:44.059Z,6.30
2018-09-01T08:53:12.754Z,5.70
2018-09-01T08:55:41.337Z,32.70
2018-09-01T08:58:09.898Z,9.10
2018-09-01T09:00:38.492Z,7.10
2018-09-01T09:03:07.017Z,5.53
2018-09-01T09:05:35.622Z,5.00
2018-09-01T09:08:04.174Z,4.40
2018-09-01T09:10:32.682Z,4.47
2018-09-01T09:13:01.603Z,4.50
2018-09-01T09:15:30.262Z,4.20
2018-09-01T09:17:58.788Z,4.43
2018-09-01T09:20:27.358Z,4.40
2018-09-01T09:22:55.948Z,4.57
2018-09-01T09:25:24.680Z,4.40
2018-09-01T09:27:53.484Z,4.43
2018-09-01T09:30:22.101Z,4.27
2018-09-01T09:32:50.818Z,5.03
2018-09-01T09:35:19.467Z,4.77
2018-09-01T09:37:48.137Z,3.20
2018-09-01T09:40:16.628Z,3.87
2018-09-01T09:42:46.099Z,3.50
2018-09-01T09:45:14.749Z,3.67
2018-09-01T09:47:43.286Z,3.70
2018-09-01T09:50:11.855Z,3.67
2018-09-01T09:52:41.874Z,3.80
2018-09-01T09:55:10.663Z,4.07
2018-09-01T09:57:39.449Z,3.73
2018-09-01T10:00:09.239Z,3.50
2018-09-01T10:02:37.795Z,2.50
2018-09-01T10:05:07.209Z,3.40
2018-09-01T10:07:35.777Z,3.30
2018-09-01T10:10:04.481Z,3.27
2018-09-01T10:12:33.239Z,4.10
2018-09-01T10:15:01.854Z,3.93
2018-09-01T10:17:30.383Z,3.53
2018-09-01T10:19:58.969Z,3.53
2018-09-01T10:22:28.421Z,3.53
2018-09-01T10:24:57.006Z,3.07
2018-09-01T10:27:25.509Z,3.50
2018-09-01T10:29:54.767Z,3.10
2018-09-01T10:32:23.874Z,3.30
2018-09-01T10:34:53.246Z,3.33
2018-09-01T10:37:21.891Z,2.90
2018-09-01T10:39:50.440Z,2.73
2018-09-01T10:42:19.051Z,3.07
2018-09-01T10:44:48.454Z,3.03
2018-09-01T10:47:17.122Z,3.07
2018-09-01T10:49:46.613Z,2.40
2018-09-01T10:52:15.175Z,2.50
2018-09-01T10:54:43.710Z,2.50
2018-09-01T10:57:12.449Z,2.90
2018-09-01T10:59:41.206Z,3.00
2018-09-01T11:02:09.726Z,2.60
2018-09-01T11:04:38.290Z,3.10
2018-09-01T11:07:07.394Z,2.57
2018-09-01T11:09:35.889Z,3.23
2018-09-01T11:12:04.783Z,2.50
2018-09-01T11:14:33.360Z,3.07
2018-09-01T11:17:01.842Z,2.70
2018-09-01T11:19:30.526Z,2.60
2018-09-01T11:21:59.106Z,2.67
2018-09-01T11:24:27.901Z,3.10
2018-09-01T11:26:57.353Z,2.63
2018-09-01T11:29:25.992Z,2.63
2018-09-01T11:31:54.548Z,2.63
2018-09-01T11:34:29.733Z,3.23
2018-09-01T11:36:59.116Z,2.70
2018-09-01T11:39:27.624Z,2.43
2018-09-01T11:41:56.493Z,2.40
2018-09-01T11:44:25.126Z,2.53
2018-09-01T11:46:53.691Z,2.70
2018-09-01T11:49:22.884Z,2.50
2018-09-01T11:51:51.529Z,2.63
2018-09-01T11:54:20.122Z,2.47
2018-09-01T11:56:48.727Z,2.60
2018-09-01T11:59:17.435Z,2.50
2018-09-01T12:01:45.942Z,2.60
2018-09-01T12:04:14.554Z,2.93
2018-09-01T12:06:43.174Z,2.47
2018-09-01T12:09:11.908Z,2.23
2018-09-01T12:11:41.043Z,2.33
2018-09-01T12:14:09.768Z,2.23
2018-09-01T12:16:38.351Z,2.50
2018-09-01T12:19:06.932Z,2.10
2018-09-01T12:21:35.590Z,2.17
2018-09-01T12:24:04.203Z,2.27
2018-09-01T12:26:32.779Z,2.00
2018-09-01T12:29:01.293Z,2.33
2018-09-01T12:31:30.035Z,2.00
2018-09-01T12:33:58.644Z,2.20
2018-09-01T12:36:27.159Z,2.70
2018-09-01T12:38:55.798Z,2.10
2018-09-01T12:41:24.429Z,2.20
2018-09-01T12:43:53.052Z,2.20
2018-09-01T12:46:22.498Z,2.50
2018-09-01T12:48:51.044Z,2.60
2018-09-01T12:51:19.603Z,2.60
2018-09-01T12:53:48.138Z,2.50
2018-09-01T12:56:16.643Z,2.50
2018-09-01T12:58:45.162Z,2.30
2018-09-01T13:01:13.747Z,2.10
2018-09-01T13:03:42.402Z,2.20
2018-09-01T13:06:11.637Z,2.37
2018-09-01T13:08:40.561Z,2.27
2018-09-01T13:11:09.500Z,2.50
2018-09-01T13:13:38.037Z,2.03
2018-09-01T13:16:06.578Z,2.17
2018-09-01T13:18:35.161Z,1.90
2018-09-01T13:21:03.668Z,2.53
2018-09-01T13:23:32.160Z,2.70
2018-09-01T13:26:00.881Z,2.43
2018-09-01T13:28:29.492Z,2.50
2018-09-01T13:30:58.011Z,2.40
2018-09-01T13:33:26.580Z,2.67
2018-09-01T13:35:55.084Z,2.80
2018-09-01T13:38:23.700Z,2.57
2018-09-01T13:40:52.354Z,2.27
2018-09-01T13:43:20.884Z,2.20
2018-09-01T13:45:49.980Z,2.37
2018-09-01T13:48:19.052Z,2.73
2018-09-01T13:50:47.560Z,2.20
2018-09-01T13:53:16.038Z,2.67
2018-09-01T13:55:44.639Z,2.50
2018-09-01T13:58:13.145Z,2.87
2018-09-01T14:00:41.673Z,3.13
2018-09-01T14:03:10.823Z,2.87
2018-09-01T14:05:39.350Z,2.90
2018-09-01T14:08:07.877Z,3.00
2018-09-01T14:10:36.390Z,2.90
2018-09-01T14:13:04.901Z,2.73
2018-09-01T14:15:33.418Z,2.43
2018-09-01T14:18:03.069Z,2.50
2018-09-01T14:20:31.616Z,2.47
2018-09-01T14:23:00.198Z,2.23
2018-09-01T14:25:28.794Z,2.80
2018-09-01T14:27:57.349Z,2.50
2018-09-01T14:30:26.885Z,2.43
2018-09-01T14:32:55.381Z,2.70
2018-09-01T14:35:23.952Z,2.57
2018-09-01T14:37:52.545Z,2.40
2018-09-01T14:40:21.174Z,1.80
2018-09-01T14:42:50.555Z,2.00
2018-09-01T14:45:19.842Z,2.60
2018-09-01T14:47:48.928Z,2.27
2018-09-01T14:50:18.381Z,2.20
2018-09-01T14:52:47.046Z,2.17
2018-09-01T14:55:15.699Z,1.83
2018-09-01T14:57:45.124Z,2.50
2018-09-01T15:00:13.813Z,2.20
2018-09-01T15:02:42.538Z,2.50
2018-09-01T15:05:11.842Z,2.00
2018-09-01T15:07:40.679Z,1.77
2018-09-01T15:10:09.321Z,1.80
2018-09-01T15:12:38.083Z,1.70
2018-09-01T15:15:08.067Z,2.03
2018-09-01T15:17:36.774Z,2.10
2018-09-01T15:20:05.488Z,1.97
2018-09-01T15:22:34.271Z,2.07
2018-09-01T15:25:02.868Z,2.00
2018-09-01T15:27:31.535Z,2.17
2018-09-01T15:30:00.380Z,2.40
2018-09-01T15:32:29.056Z,2.23
2018-09-01T15:34:57.792Z,9.30
2018-09-01T15:37:26.407Z,5.97
2018-09-01T15:39:55.093Z,2.90
2018-09-01T15:42:23.640Z,2.00
2018-09-01T15:44:54.018Z,2.13
2018-09-01T15:47:22.633Z,1.70
2018-09-01T15:49:51.486Z,2.73
2018-09-01T15:52:20.174Z,2.43
2018-09-01T15:54:48.783Z,2.10
2018-09-01T15:57:17.421Z,2.07
2018-09-01T15:59:46.057Z,2.50
2018-09-01T16:02:15.238Z,2.30
2018-09-01T16:04:43.765Z,1.93
2018-09-01T16:07:12.257Z,7.50
2018-09-01T16:09:40.811Z,4.40
2018-09-01T16:12:09.367Z,3.60
2018-09-01T16:14:37.889Z,1.97
2018-09-01T16:17:06.756Z,2.27
2018-09-01T16:19:35.372Z,1.80
2018-09-01T16:22:04.093Z,2.30
2018-09-01T16:24:32.645Z,2.73
2018-09-01T16:27:01.190Z,3.73
2018-09-01T16:29:29.874Z,3.63
2018-09-01T16:31:58.562Z,2.33
2018-09-01T16:34:27.439Z,2.10
2018-09-01T16:36:56.111Z,2.93
2018-09-01T16:39:24.954Z,2.23
2018-09-01T16:41:53.462Z,2.10
2018-09-01T16:44:26.258Z,2.00
2018-09-01T16:46:55.587Z,2.20
2018-09-01T16:49:24.434Z,2.00
2018-09-01T16:51:53.022Z,1.90
2018-09-01T16:54:21.506Z,2.67
2018-09-01T16:56:50.091Z,1.60
2018-09-01T16:59:18.627Z,2.27
2018-09-01T17:01:47.230Z,2.10
2018-09-01T17:04:15.755Z,2.10
2018-09-01T17:06:44.498Z,2.00
2018-09-01T17:09:13.056Z,2.00
2018-09-01T17:11:41.528Z,2.00
2018-09-01T17:14:10.114Z,2.23
2018-09-01T17:16:39.270Z,1.63
2018-09-01T17:19:07.966Z,2.20
2018-09-01T17:21:36.508Z,2.10
2018-09-01T17:24:05.097Z,2.07
2018-09-01T17:26:33.701Z,2.23
2018-09-01T17:29:02.229Z,2.20
2018-09-01T17:31:30.795Z,3.20
2018-09-01T17:33:59.397Z,3.00
2018-09-01T17:36:27.958Z,3.07
2018-09-01T17:38:56.636Z,2.17
2018-09-01T17:41:25.276Z,2.23
2018-09-01T17:43:54.262Z,2.23
2018-09-01T17:46:22.922Z,2.50
2018-09-01T17:48:51.880Z,2.63
2018-09-01T17:51:21.516Z,2.50
2018-09-01T17:53:50.235Z,2.13
2018-09-01T17:56:19.903Z,4.20
2018-09-01T17:58:48.458Z,8.57
2018-09-01T18:01:18.303Z,20.87
2018-09-01T18:03:47.225Z,4.70
2018-09-01T18:06:15.724Z,2.60
2018-09-01T18:08:44.301Z,2.77
2018-09-01T18:11:12.803Z,3.53
2018-09-01T18:13:41.482Z,2.77
2018-09-01T18:16:10.979Z,2.23
2018-09-01T18:18:39.519Z,3.00
2018-09-01T18:21:08.609Z,2.83
2018-09-01T18:23:37.298Z,2.53
2018-09-01T18:26:05.936Z,2.80
2018-09-01T18:28:35.340Z,2.40
2018-09-01T18:31:03.969Z,3.73
2018-09-01T18:33:32.510Z,2.90
2018-09-01T18:36:01.174Z,2.70
2018-09-01T18:38:29.741Z,12.17
2018-09-01T18:40:58.282Z,5.07
2018-09-01T18:43:26.824Z,13.77
2018-09-01T18:45:55.362Z,7.67
2018-09-01T18:48:23.850Z,9.50
2018-09-01T18:50:52.452Z,4.23
2018-09-01T18:53:21.153Z,9.67
2018-09-01T18:55:49.778Z,7.67
2018-09-01T18:58:18.281Z,8.90
2018-09-01T19:00:46.835Z,4.93
2018-09-01T19:03:15.377Z,12.30
2018-09-01T19:05:43.825Z,5.90
2018-09-01T19:08:20.004Z,12.27
2018-09-01T19:10:48.609Z,17.17
2018-09-01T19:13:17.080Z,6.80
2018-09-01T19:16:16.217Z,3.90
2018-09-01T19:18:44.710Z,3.70
2018-09-01T19:21:13.341Z,3.13
2018-09-01T19:23:41.766Z,7.77
2018-09-01T19:26:10.344Z,5.37
2018-09-01T19:28:38.794Z,4.50
2018-09-01T19:31:07.298Z,3.23
2018-09-01T19:33:35.797Z,3.70
2018-09-01T19:36:04.340Z,4.50
2018-09-01T19:38:34.191Z,7.23
2018-09-01T19:41:02.654Z,5.97
2018-09-01T19:43:31.388Z,8.90
2018-09-01T19:46:00.841Z,5.80
2018-09-01T19:48:29.265Z,6.63
2018-09-01T19:50:57.767Z,9.77
2018-09-01T19:53:26.581Z,9.67
2018-09-01T19:55:55.257Z,5.93
2018-09-01T19:58:23.768Z,4.77
2018-09-01T20:00:52.318Z,4.13
2018-09-01T20:03:20.834Z,6.87
2018-09-01T20:05:49.682Z,6.70
2018-09-01T20:08:18.231Z,5.70
2018-09-01T20:10:46.731Z,12.53
2018-09-01T20:13:15.282Z,11.83
2018-09-01T20:15:43.822Z,7.03
2018-09-01T20:18:12.468Z,5.17
2018-09-01T20:20:41.039Z,4.53
2018-09-01T20:23:09.516Z,5.73
2018-09-01T20:25:38.034Z,3.43
2018-09-01T20:28:06.985Z,3.30
2018-09-01T20:30:35.442Z,4.53
2018-09-01T20:33:03.884Z,3.50
2018-09-01T20:35:37.797Z,4.10
2018-09-01T20:38:06.567Z,3.67
2018-09-01T20:40:35.048Z,4.00
2018-09-01T20:43:03.572Z,3.47
2018-09-01T20:45:32.174Z,4.10
2018-09-01T20:48:00.633Z,3.47
2018-09-01T20:50:29.038Z,3.23
2018-09-01T20:52:57.527Z,3.30
2018-09-01T20:55:26.008Z,3.90
2018-09-01T20:57:54.460Z,4.00
2018-09-01T21:00:22.894Z,3.57
2018-09-01T21:02:51.370Z,2.83
2018-09-01T21:05:19.995Z,3.70
2018-09-01T21:07:48.713Z,4.07
2018-09-01T21:10:17.217Z,4.27
2018-09-01T21:12:45.742Z,3.90
2018-09-01T21:15:14.191Z,3.80
2018-09-01T21:17:42.708Z,3.67
2018-09-01T21:20:11.197Z,2.93
2018-09-01T21:22:39.699Z,3.50
2018-09-01T21:25:08.219Z,3.10
2018-09-01T21:27:36.723Z,2.90
2018-09-01T21:30:05.589Z,4.13
2018-09-01T21:32:34.099Z,3.43
2018-09-01T21:35:02.548Z,3.63
2018-09-01T21:37:30.988Z,3.87
2018-09-01T21:39:59.470Z,3.63
2018-09-01T21:42:27.966Z,3.43
2018-09-01T21:44:56.535Z,3.87
2018-09-01T21:47:25.285Z,6.20
2018-09-01T21:49:53.865Z,8.10
2018-09-01T21:52:22.403Z,6.10
2018-09-01T21:54:50.926Z,5.10
2018-09-01T21:57:19.556Z,4.87
2018-09-01T21:59:48.440Z,4.60
2018-09-01T22:02:23.059Z,4.20
2018-09-01T22:04:57.037Z,4.33
2018-09-01T22:07:25.734Z,3.93
2018-09-01T22:09:55.667Z,4.73
2018-09-01T22:12:25.120Z,4.53
2018-09-01T22:14:54.376Z,4.00
2018-09-01T22:17:23.409Z,4.20
2018-09-01T22:19:51.932Z,4.33
2018-09-01T22:22:20.695Z,5.10
2018-09-01T22:24:49.315Z,4.23
2018-09-01T22:27:21.907Z,3.43
2018-09-01T22:29:50.755Z,3.50
2018-09-01T22:32:19.322Z,3.60
2018-09-01T22:34:47.860Z,4.27
2018-09-01T22:37:16.356Z,4.33
2018-09-01T22:39:44.891Z,3.83
2018-09-01T22:42:13.452Z,4.03
2018-09-01T22:44:42.090Z,3.00
2018-09-01T22:47:14.073Z,3.43
2018-09-01T22:49:42.551Z,4.37
2018-09-01T22:52:11.079Z,3.63
2018-09-01T22:54:39.577Z,3.83
2018-09-01T22:57:08.186Z,4.67
2018-09-01T22:59:36.800Z,4.20
2018-09-01T23:02:05.473Z,4.45
2018-09-01T23:04:34.009Z,4.30
2018-09-01T23:07:02.551Z,4.40
2018-09-01T23:09:31.054Z,4.17
2018-09-01T23:11:59.630Z,4.40
2018-09-01T23:14:28.941Z,3.83
2018-09-01T23:16:57.405Z,3.93
2018-09-01T23:19:25.869Z,3.67
2018-09-01T23:21:54.392Z,4.13
2018-09-01T23:24:22.954Z,3.73
2018-09-01T23:26:51.410Z,3.73
2018-09-01T23:29:20.060Z,4.10
2018-09-01T23:31:48.665Z,4.47
2018-09-01T23:34:17.138Z,4.73
2018-09-01T23:36:45.737Z,4.50
2018-09-01T23:39:14.213Z,4.30
2018-09-01T23:41:42.716Z,4.13
2018-09-01T23:44:11.412Z,4.70
2018-09-01T23:46:39.979Z,4.70
2018-09-01T23:49:08.443Z,5.30
2018-09-01T23:51:36.994Z,4.80
2018-09-01T23:54:05.705Z,5.00
2018-09-01T23:56:34.261Z,4.80
2018-09-01T23:59:03.318Z,5.77
